sensor_id;sensor_type;location;lat;lon;timestamp;pressure;altitude;pressure_sealevel;temperature;humidity
46714;BME280;32445;51.376;10.874;2023-09-30T00:03:27;100091.94;;;18.06;48.52
46714;BME280;32445;51.376;10.874;2023-09-30T00:08:27;100098.28;;;18.02;48.51
46714;BME280;32445;51.376;10.874;2023-09-30T00:13:28;100097.00;;;17.91;48.45
46714;BME280;32445;51.376;10.874;2023-09-30T00:18:28;100105.13;;;17.85;48.52
46714;BME280;32445;51.376;10.874;2023-09-30T00:23:28;100117.84;;;17.75;48.50
46714;BME280;32445;51.376;10.874;2023-09-30T00:28:29;100114.88;;;17.64;48.67
46714;BME280;32445;51.376;10.874;2023-09-30T00:33:29;100129.19;;;17.57;48.77
46714;BME280;32445;51.376;10.874;2023-09-30T00:38:30;100128.59;;;17.50;48.70
46714;BME280;32445;51.376;10.874;2023-09-30T00:43:30;100127.91;;;17.46;48.74
46714;BME280;32445;51.376;10.874;2023-09-30T00:48:34;100162.34;;;17.39;48.64
46714;BME280;32445;51.376;10.874;2023-09-30T00:53:35;100161.81;;;17.30;48.47
46714;BME280;32445;51.376;10.874;2023-09-30T00:58:37;100161.50;;;17.18;48.83
46714;BME280;32445;51.376;10.874;2023-09-30T01:03:38;100169.09;;;17.03;48.92
46714;BME280;32445;51.376;10.874;2023-09-30T01:08:38;100164.53;;;16.86;48.97
46714;BME280;32445;51.376;10.874;2023-09-30T01:13:39;100155.41;;;16.74;49.23
46714;BME280;32445;51.376;10.874;2023-09-30T01:18:40;100168.03;;;16.65;49.34
46714;BME280;32445;51.376;10.874;2023-09-30T01:23:42;100175.06;;;16.64;49.23
46714;BME280;32445;51.376;10.874;2023-09-30T01:28:44;100182.16;;;16.62;48.92
46714;BME280;32445;51.376;10.874;2023-09-30T01:33:44;100186.72;;;16.57;48.87
46714;BME280;32445;51.376;10.874;2023-09-30T01:38:44;100206.09;;;16.53;48.77
46714;BME280;32445;51.376;10.874;2023-09-30T01:43:45;100202.84;;;16.46;48.69
46714;BME280;32445;51.376;10.874;2023-09-30T01:48:45;100204.94;;;16.38;48.37
46714;BME280;32445;51.376;10.874;2023-09-30T01:53:45;100203.53;;;16.29;48.44
46714;BME280;32445;51.376;10.874;2023-09-30T01:58:46;100209.94;;;16.20;48.43
46714;BME280;32445;51.376;10.874;2023-09-30T02:03:46;100220.84;;;16.09;48.39
46714;BME280;32445;51.376;10.874;2023-09-30T02:08:47;100222.06;;;16.01;48.56
46714;BME280;32445;51.376;10.874;2023-09-30T02:13:47;100229.38;;;15.91;48.34
46714;BME280;32445;51.376;10.874;2023-09-30T02:18:48;100238.50;;;15.81;48.39
46714;BME280;32445;51.376;10.874;2023-09-30T02:23:50;100238.78;;;15.71;48.28
46714;BME280;32445;51.376;10.874;2023-09-30T02:28:55;100251.31;;;15.62;48.04
46714;BME280;32445;51.376;10.874;2023-09-30T02:33:56;100247.25;;;15.53;48.21
46714;BME280;32445;51.376;10.874;2023-09-30T02:38:56;100240.53;;;15.46;48.41
46714;BME280;32445;51.376;10.874;2023-09-30T02:43:57;100247.75;;;15.39;48.31
46714;BME280;32445;51.376;10.874;2023-09-30T02:48:57;100236.53;;;15.35;48.48
46714;BME280;32445;51.376;10.874;2023-09-30T02:53:58;100257.63;;;15.31;48.46
46714;BME280;32445;51.376;10.874;2023-09-30T02:58:58;100250.84;;;15.25;48.36
46714;BME280;32445;51.376;10.874;2023-09-30T03:04:00;100257.13;;;15.19;48.35
46714;BME280;32445;51.376;10.874;2023-09-30T03:09:00;100267.75;;;15.15;48.38
46714;BME280;32445;51.376;10.874;2023-09-30T03:14:02;100262.69;;;15.09;48.51
46714;BME280;32445;51.376;10.874;2023-09-30T03:19:03;100282.03;;;15.04;48.48
46714;BME280;32445;51.376;10.874;2023-09-30T03:24:08;100284.88;;;14.97;48.20
46714;BME280;32445;51.376;10.874;2023-09-30T03:29:09;100274.63;;;14.91;48.66
46714;BME280;32445;51.376;10.874;2023-09-30T03:34:09;100260.03;;;14.83;48.44
46714;BME280;32445;51.376;10.874;2023-09-30T03:39:10;100268.91;;;14.78;48.67
46714;BME280;32445;51.376;10.874;2023-09-30T03:44:14;100271.72;;;14.72;48.51
46714;BME280;32445;51.376;10.874;2023-09-30T03:49:15;100266.69;;;14.65;48.63
46714;BME280;32445;51.376;10.874;2023-09-30T03:54:17;100269.47;;;14.59;48.72
46714;BME280;32445;51.376;10.874;2023-09-30T03:59:18;100281.78;;;14.54;48.74
46714;BME280;32445;51.376;10.874;2023-09-30T04:04:19;100294.16;;;14.49;48.74
46714;BME280;32445;51.376;10.874;2023-09-30T04:09:21;100293.47;;;14.42;48.74
46714;BME280;32445;51.376;10.874;2023-09-30T04:14:22;100304.06;;;14.38;48.98
46714;BME280;32445;51.376;10.874;2023-09-30T04:19:22;100282.44;;;14.32;48.68
46714;BME280;32445;51.376;10.874;2023-09-30T04:24:22;100274.72;;;14.28;48.71
46714;BME280;32445;51.376;10.874;2023-09-30T04:29:23;100288.78;;;14.24;48.78
46714;BME280;32445;51.376;10.874;2023-09-30T04:34:24;100326.31;;;14.19;48.92
46714;BME280;32445;51.376;10.874;2023-09-30T04:39:24;100322.06;;;14.15;48.70
46714;BME280;32445;51.376;10.874;2023-09-30T04:44:25;100334.41;;;14.10;48.88
46714;BME280;32445;51.376;10.874;2023-09-30T04:49:28;100331.91;;;14.07;49.00
46714;BME280;32445;51.376;10.874;2023-09-30T04:54:29;100318.06;;;14.04;48.90
46714;BME280;32445;51.376;10.874;2023-09-30T04:59:29;100326.78;;;14.02;48.96
46714;BME280;32445;51.376;10.874;2023-09-30T05:04:30;100336.47;;;13.99;49.04
46714;BME280;32445;51.376;10.874;2023-09-30T05:09:30;100334.78;;;13.96;48.93
46714;BME280;32445;51.376;10.874;2023-09-30T05:14:31;100338.38;;;13.92;49.02
46714;BME280;32445;51.376;10.874;2023-09-30T05:19:31;100343.66;;;13.89;48.96
46714;BME280;32445;51.376;10.874;2023-09-30T05:24:32;100339.38;;;13.87;49.06
46714;BME280;32445;51.376;10.874;2023-09-30T05:29:32;100343.81;;;13.84;49.28
46714;BME280;32445;51.376;10.874;2023-09-30T05:34:33;100353.44;;;13.81;49.17
46714;BME280;32445;51.376;10.874;2023-09-30T05:39:33;100353.56;;;13.76;49.10
46714;BME280;32445;51.376;10.874;2023-09-30T05:44:35;100350.19;;;13.73;49.14
46714;BME280;32445;51.376;10.874;2023-09-30T05:49:35;100363.28;;;13.70;49.12
46714;BME280;32445;51.376;10.874;2023-09-30T05:54:36;100376.44;;;13.66;49.28
46714;BME280;32445;51.376;10.874;2023-09-30T05:59:37;100370.41;;;13.64;49.14
46714;BME280;32445;51.376;10.874;2023-09-30T06:04:37;100369.53;;;13.64;49.01
46714;BME280;32445;51.376;10.874;2023-09-30T06:09:38;100371.25;;;13.65;49.25
46714;BME280;32445;51.376;10.874;2023-09-30T06:14:39;100392.88;;;13.70;49.29
46714;BME280;32445;51.376;10.874;2023-09-30T06:19:41;100389.34;;;13.73;49.22
46714;BME280;32445;51.376;10.874;2023-09-30T06:24:41;100394.44;;;13.77;49.24
46714;BME280;32445;51.376;10.874;2023-09-30T06:29:42;100390.84;;;13.81;49.24
46714;BME280;32445;51.376;10.874;2023-09-30T06:34:42;100383.75;;;13.87;49.24
46714;BME280;32445;51.376;10.874;2023-09-30T06:39:43;100379.28;;;13.92;49.04
46714;BME280;32445;51.376;10.874;2023-09-30T06:44:43;100381.75;;;13.96;49.19
46714;BME280;32445;51.376;10.874;2023-09-30T06:49:44;100393.84;;;14.00;49.09
46714;BME280;32445;51.376;10.874;2023-09-30T06:54:45;100411.09;;;14.06;49.19
46714;BME280;32445;51.376;10.874;2023-09-30T06:59:45;100421.38;;;14.12;49.24
46714;BME280;32445;51.376;10.874;2023-09-30T07:04:46;100428.09;;;14.21;49.12
46714;BME280;32445;51.376;10.874;2023-09-30T07:09:46;100437.44;;;14.30;49.26
46714;BME280;32445;51.376;10.874;2023-09-30T07:14:47;100435.53;;;14.36;49.37
46714;BME280;32445;51.376;10.874;2023-09-30T07:19:47;100444.06;;;14.43;49.22
46714;BME280;32445;51.376;10.874;2023-09-30T07:24:48;100452.63;;;14.50;49.52
46714;BME280;32445;51.376;10.874;2023-09-30T07:29:49;100462.78;;;14.59;49.28
46714;BME280;32445;51.376;10.874;2023-09-30T07:34:50;100464.47;;;14.63;49.46
46714;BME280;32445;51.376;10.874;2023-09-30T07:39:50;100459.00;;;14.71;49.42
46714;BME280;32445;51.376;10.874;2023-09-30T07:44:51;100459.56;;;14.82;49.46
46714;BME280;32445;51.376;10.874;2023-09-30T07:49:51;100456.81;;;14.87;49.61
46714;BME280;32445;51.376;10.874;2023-09-30T07:54:52;100464.59;;;14.88;49.63
46714;BME280;32445;51.376;10.874;2023-09-30T07:59:52;100467.13;;;14.93;49.68
46714;BME280;32445;51.376;10.874;2023-09-30T08:04:53;100476.59;;;14.97;49.99
46714;BME280;32445;51.376;10.874;2023-09-30T08:09:53;100472.25;;;14.96;50.40
46714;BME280;32445;51.376;10.874;2023-09-30T08:14:54;100483.50;;;14.98;50.75
46714;BME280;32445;51.376;10.874;2023-09-30T08:19:54;100490.38;;;15.02;50.85
46714;BME280;32445;51.376;10.874;2023-09-30T08:24:55;100486.72;;;15.08;50.92
46714;BME280;32445;51.376;10.874;2023-09-30T08:29:55;100485.53;;;15.18;50.85
46714;BME280;32445;51.376;10.874;2023-09-30T08:34:55;100489.72;;;15.24;51.08
46714;BME280;32445;51.376;10.874;2023-09-30T08:39:56;100488.66;;;15.31;51.24
46714;BME280;32445;51.376;10.874;2023-09-30T08:44:56;100486.56;;;15.43;51.21
46714;BME280;32445;51.376;10.874;2023-09-30T08:49:59;100483.69;;;15.52;51.13
46714;BME280;32445;51.376;10.874;2023-09-30T08:55:09;100482.50;;;15.62;51.32
46714;BME280;32445;51.376;10.874;2023-09-30T09:00:13;100476.94;;;15.71;51.09
46714;BME280;32445;51.376;10.874;2023-09-30T09:05:13;100479.28;;;15.82;51.12
46714;BME280;32445;51.376;10.874;2023-09-30T09:10:15;100477.91;;;15.97;51.32
46714;BME280;32445;51.376;10.874;2023-09-30T09:15:24;100491.38;;;16.12;51.19
46714;BME280;32445;51.376;10.874;2023-09-30T09:20:25;100493.28;;;16.33;51.08
46714;BME280;32445;51.376;10.874;2023-09-30T09:25:28;100516.78;;;16.61;50.68
46714;BME280;32445;51.376;10.874;2023-09-30T09:30:30;100515.16;;;16.83;50.39
46714;BME280;32445;51.376;10.874;2023-09-30T09:35:32;100509.94;;;17.06;50.46
46714;BME280;32445;51.376;10.874;2023-09-30T09:40:35;100517.84;;;17.30;50.18
46714;BME280;32445;51.376;10.874;2023-09-30T09:45:36;100499.47;;;17.52;49.82
46714;BME280;32445;51.376;10.874;2023-09-30T09:50:41;100511.72;;;17.75;49.58
46714;BME280;32445;51.376;10.874;2023-09-30T09:55:44;100496.78;;;18.20;49.05
46714;BME280;32445;51.376;10.874;2023-09-30T10:00:46;100508.22;;;18.60;48.78
46714;BME280;32445;51.376;10.874;2023-09-30T10:05:46;100499.28;;;18.64;48.77
46714;BME280;32445;51.376;10.874;2023-09-30T10:10:47;100503.41;;;18.70;48.85
46714;BME280;32445;51.376;10.874;2023-09-30T10:15:48;100483.75;;;18.79;48.90
46714;BME280;32445;51.376;10.874;2023-09-30T10:20:48;100482.44;;;19.08;48.63
46714;BME280;32445;51.376;10.874;2023-09-30T10:25:51;100489.63;;;19.43;48.20
46714;BME280;32445;51.376;10.874;2023-09-30T10:31:14;100495.81;;;19.61;47.97
46714;BME280;32445;51.376;10.874;2023-09-30T10:36:33;100493.47;;;19.91;47.77
46714;BME280;32445;51.376;10.874;2023-09-30T10:46:45;100472.72;;;20.37;47.57
46714;BME280;32445;51.376;10.874;2023-09-30T10:51:45;100473.06;;;20.82;47.03
46714;BME280;32445;51.376;10.874;2023-09-30T10:56:46;100462.44;;;21.16;46.73
46714;BME280;32445;51.376;10.874;2023-09-30T11:01:47;100450.94;;;21.33;46.53
46714;BME280;32445;51.376;10.874;2023-09-30T11:06:49;100447.72;;;21.43;46.57
46714;BME280;32445;51.376;10.874;2023-09-30T11:11:52;100449.06;;;21.51;46.70
46714;BME280;32445;51.376;10.874;2023-09-30T11:16:56;100462.78;;;21.57;46.86
46714;BME280;32445;51.376;10.874;2023-09-30T11:21:57;100467.22;;;21.73;46.53
46714;BME280;32445;51.376;10.874;2023-09-30T11:27:01;100474.34;;;21.87;46.51
46714;BME280;32445;51.376;10.874;2023-09-30T11:32:02;100455.03;;;22.01;46.41
46714;BME280;32445;51.376;10.874;2023-09-30T11:37:03;100447.03;;;22.47;45.89
46714;BME280;32445;51.376;10.874;2023-09-30T11:42:14;100444.00;;;22.68;45.51
46714;BME280;32445;51.376;10.874;2023-09-30T11:47:16;100445.59;;;22.85;45.27
46714;BME280;32445;51.376;10.874;2023-09-30T11:52:28;100436.91;;;22.97;45.94
46714;BME280;32445;51.376;10.874;2023-09-30T11:57:28;100443.09;;;23.10;45.74
46714;BME280;32445;51.376;10.874;2023-09-30T12:02:28;100427.94;;;23.41;45.45
46714;BME280;32445;51.376;10.874;2023-09-30T12:07:29;100422.97;;;23.90;44.71
46714;BME280;32445;51.376;10.874;2023-09-30T12:12:30;100419.63;;;24.00;44.58
46714;BME280;32445;51.376;10.874;2023-09-30T12:17:30;100417.81;;;24.14;44.85
46714;BME280;32445;51.376;10.874;2023-09-30T12:22:31;100414.00;;;24.18;44.51
46714;BME280;32445;51.376;10.874;2023-09-30T12:27:31;100409.75;;;24.41;44.19
46714;BME280;32445;51.376;10.874;2023-09-30T12:32:32;100408.69;;;24.44;44.72
46714;BME280;32445;51.376;10.874;2023-09-30T12:37:32;100406.88;;;24.57;43.81
46714;BME280;32445;51.376;10.874;2023-09-30T12:42:33;100402.53;;;24.82;43.90
46714;BME280;32445;51.376;10.874;2023-09-30T12:47:37;100409.78;;;25.04;43.77
46714;BME280;32445;51.376;10.874;2023-09-30T12:52:37;100398.31;;;25.41;43.19
46714;BME280;32445;51.376;10.874;2023-09-30T12:57:38;100390.63;;;25.60;43.22
46714;BME280;32445;51.376;10.874;2023-09-30T13:02:39;100396.41;;;25.54;43.12
46714;BME280;32445;51.376;10.874;2023-09-30T13:07:39;100404.50;;;25.52;42.64
46714;BME280;32445;51.376;10.874;2023-09-30T13:12:40;100403.19;;;25.58;43.40
46714;BME280;32445;51.376;10.874;2023-09-30T13:17:40;100386.69;;;25.77;43.40
46714;BME280;32445;51.376;10.874;2023-09-30T13:22:41;100390.28;;;26.00;43.06
46714;BME280;32445;51.376;10.874;2023-09-30T13:27:41;100380.81;;;25.85;42.89
46714;BME280;32445;51.376;10.874;2023-09-30T13:32:41;100376.22;;;25.98;43.04
46714;BME280;32445;51.376;10.874;2023-09-30T13:37:42;100370.09;;;26.09;42.78
46714;BME280;32445;51.376;10.874;2023-09-30T13:42:42;100375.09;;;26.25;42.92
46714;BME280;32445;51.376;10.874;2023-09-30T13:47:43;100366.88;;;26.28;42.12
46714;BME280;32445;51.376;10.874;2023-09-30T13:52:44;100358.38;;;26.46;42.45
46714;BME280;32445;51.376;10.874;2023-09-30T13:57:47;100358.75;;;26.64;42.21
46714;BME280;32445;51.376;10.874;2023-09-30T14:02:48;100350.16;;;26.60;42.03
46714;BME280;32445;51.376;10.874;2023-09-30T14:07:50;100355.97;;;26.76;42.07
46714;BME280;32445;51.376;10.874;2023-09-30T14:12:51;100359.84;;;26.72;41.73
46714;BME280;32445;51.376;10.874;2023-09-30T14:17:51;100362.63;;;26.71;42.09
46714;BME280;32445;51.376;10.874;2023-09-30T14:22:52;100361.63;;;26.60;41.73
46714;BME280;32445;51.376;10.874;2023-09-30T14:27:52;100357.63;;;26.55;41.58
46714;BME280;32445;51.376;10.874;2023-09-30T14:32:52;100358.75;;;26.64;41.84
46714;BME280;32445;51.376;10.874;2023-09-30T14:37:54;100357.44;;;26.58;41.43
46714;BME280;32445;51.376;10.874;2023-09-30T14:42:56;100341.59;;;26.45;41.69
46714;BME280;32445;51.376;10.874;2023-09-30T14:47:57;100347.75;;;26.46;41.76
46714;BME280;32445;51.376;10.874;2023-09-30T14:52:57;100334.78;;;26.64;41.63
46714;BME280;32445;51.376;10.874;2023-09-30T14:57:58;100320.28;;;26.56;41.27
46714;BME280;32445;51.376;10.874;2023-09-30T15:02:58;100310.22;;;26.60;41.36
46714;BME280;32445;51.376;10.874;2023-09-30T15:07:59;100308.25;;;26.62;41.37
46714;BME280;32445;51.376;10.874;2023-09-30T15:13:01;100323.91;;;26.55;40.73
46714;BME280;32445;51.376;10.874;2023-09-30T15:18:03;100324.84;;;26.54;41.03
46714;BME280;32445;51.376;10.874;2023-09-30T15:23:04;100335.63;;;26.53;40.72
46714;BME280;32445;51.376;10.874;2023-09-30T15:28:05;100330.06;;;26.22;41.27
46714;BME280;32445;51.376;10.874;2023-09-30T15:33:05;100328.66;;;26.18;41.05
46714;BME280;32445;51.376;10.874;2023-09-30T15:38:06;100333.34;;;26.14;41.17
46714;BME280;32445;51.376;10.874;2023-09-30T15:43:06;100327.06;;;26.15;41.19
46714;BME280;32445;51.376;10.874;2023-09-30T15:48:07;100326.31;;;26.13;41.17
46714;BME280;32445;51.376;10.874;2023-09-30T15:53:07;100322.28;;;25.96;41.17
46714;BME280;32445;51.376;10.874;2023-09-30T15:58:07;100316.38;;;25.93;40.84
46714;BME280;32445;51.376;10.874;2023-09-30T16:03:09;100319.53;;;25.86;40.71
46714;BME280;32445;51.376;10.874;2023-09-30T16:08:10;100321.56;;;25.83;41.00
46714;BME280;32445;51.376;10.874;2023-09-30T16:13:11;100321.09;;;25.78;40.46
46714;BME280;32445;51.376;10.874;2023-09-30T16:18:11;100322.84;;;25.66;40.67
46714;BME280;32445;51.376;10.874;2023-09-30T16:23:12;100332.50;;;25.55;40.85
46714;BME280;32445;51.376;10.874;2023-09-30T16:28:12;100336.31;;;25.40;40.54
46714;BME280;32445;51.376;10.874;2023-09-30T16:33:13;100340.41;;;25.20;40.90
46714;BME280;32445;51.376;10.874;2023-09-30T16:38:13;100339.59;;;24.95;40.88
46714;BME280;32445;51.376;10.874;2023-09-30T16:43:14;100342.00;;;24.74;40.73
46714;BME280;32445;51.376;10.874;2023-09-30T16:48:15;100360.19;;;24.55;41.16
46714;BME280;32445;51.376;10.874;2023-09-30T16:53:15;100360.84;;;24.32;40.94
46714;BME280;32445;51.376;10.874;2023-09-30T16:58:17;100367.63;;;24.11;40.97
46714;BME280;32445;51.376;10.874;2023-09-30T17:03:18;100361.16;;;23.89;40.67
46714;BME280;32445;51.376;10.874;2023-09-30T17:08:18;100368.00;;;23.66;40.64
46714;BME280;32445;51.376;10.874;2023-09-30T17:13:18;100367.72;;;23.43;40.62
46714;BME280;32445;51.376;10.874;2023-09-30T17:18:19;100377.94;;;23.22;40.53
46714;BME280;32445;51.376;10.874;2023-09-30T17:23:20;100377.50;;;23.01;40.61
46714;BME280;32445;51.376;10.874;2023-09-30T17:28:20;100385.84;;;22.80;40.23
46714;BME280;32445;51.376;10.874;2023-09-30T17:33:23;100380.22;;;22.58;40.56
46714;BME280;32445;51.376;10.874;2023-09-30T17:38:23;100369.34;;;22.34;40.49
46714;BME280;32445;51.376;10.874;2023-09-30T17:43:23;100370.53;;;22.13;40.51
46714;BME280;32445;51.376;10.874;2023-09-30T17:48:24;100376.38;;;21.90;40.85
46714;BME280;32445;51.376;10.874;2023-09-30T17:53:24;100372.44;;;21.67;40.49
46714;BME280;32445;51.376;10.874;2023-09-30T17:58:25;100377.91;;;21.48;40.76
46714;BME280;32445;51.376;10.874;2023-09-30T18:03:25;100385.19;;;21.28;40.83
46714;BME280;32445;51.376;10.874;2023-09-30T18:08:25;100379.16;;;21.10;40.88
46714;BME280;32445;51.376;10.874;2023-09-30T18:13:26;100374.91;;;20.91;40.66
46714;BME280;32445;51.376;10.874;2023-09-30T18:18:26;100390.81;;;20.74;40.87
46714;BME280;32445;51.376;10.874;2023-09-30T18:23:27;100396.13;;;20.56;40.91
46714;BME280;32445;51.376;10.874;2023-09-30T18:28:33;100376.94;;;20.37;40.92
46714;BME280;32445;51.376;10.874;2023-09-30T18:33:34;100382.16;;;20.21;41.00
46714;BME280;32445;51.376;10.874;2023-09-30T18:38:34;100385.69;;;20.04;40.89
46714;BME280;32445;51.376;10.874;2023-09-30T18:43:35;100371.69;;;19.86;40.96
46714;BME280;32445;51.376;10.874;2023-09-30T18:48:36;100367.22;;;19.69;40.73
46714;BME280;32445;51.376;10.874;2023-09-30T18:53:39;100357.47;;;19.53;41.20
46714;BME280;32445;51.376;10.874;2023-09-30T18:58:40;100365.28;;;19.38;41.04
46714;BME280;32445;51.376;10.874;2023-09-30T19:03:41;100366.09;;;19.21;41.12
46714;BME280;32445;51.376;10.874;2023-09-30T19:08:41;100371.25;;;19.05;40.98
46714;BME280;32445;51.376;10.874;2023-09-30T19:13:42;100376.31;;;18.90;41.34
46714;BME280;32445;51.376;10.874;2023-09-30T19:18:42;100387.41;;;18.76;41.17
46714;BME280;32445;51.376;10.874;2023-09-30T19:23:43;100387.13;;;18.63;41.36
46714;BME280;32445;51.376;10.874;2023-09-30T19:28:43;100386.84;;;18.50;41.26
46714;BME280;32445;51.376;10.874;2023-09-30T19:33:44;100369.03;;;18.37;41.41
46714;BME280;32445;51.376;10.874;2023-09-30T19:38:45;100371.25;;;18.27;41.53
46714;BME280;32445;51.376;10.874;2023-09-30T19:43:48;100376.06;;;18.17;41.41
46714;BME280;32445;51.376;10.874;2023-09-30T19:48:48;100383.47;;;18.07;41.48
46714;BME280;32445;51.376;10.874;2023-09-30T19:53:50;100385.56;;;17.99;41.61
46714;BME280;32445;51.376;10.874;2023-09-30T19:58:50;100387.66;;;17.91;41.69
46714;BME280;32445;51.376;10.874;2023-09-30T20:03:50;100387.13;;;17.83;41.54
46714;BME280;32445;51.376;10.874;2023-09-30T20:08:52;100381.25;;;17.76;41.70
46714;BME280;32445;51.376;10.874;2023-09-30T20:13:54;100385.97;;;17.68;41.64
46714;BME280;32445;51.376;10.874;2023-09-30T20:18:55;100379.28;;;17.60;41.85
46714;BME280;32445;51.376;10.874;2023-09-30T20:23:56;100373.44;;;17.54;42.08
46714;BME280;32445;51.376;10.874;2023-09-30T20:29:03;100363.31;;;17.44;41.93
46714;BME280;32445;51.376;10.874;2023-09-30T20:34:07;100380.22;;;17.37;42.14
46714;BME280;32445;51.376;10.874;2023-09-30T20:39:08;100370.13;;;17.28;42.01
46714;BME280;32445;51.376;10.874;2023-09-30T20:44:10;100381.78;;;17.19;42.03
46714;BME280;32445;51.376;10.874;2023-09-30T20:49:12;100375.28;;;17.07;41.98
46714;BME280;32445;51.376;10.874;2023-09-30T20:54:13;100383.50;;;16.98;42.24
46714;BME280;32445;51.376;10.874;2023-09-30T20:59:13;100385.56;;;16.90;42.29
46714;BME280;32445;51.376;10.874;2023-09-30T21:04:15;100376.19;;;16.83;42.26
46714;BME280;32445;51.376;10.874;2023-09-30T21:09:15;100382.59;;;16.75;42.24
46714;BME280;32445;51.376;10.874;2023-09-30T21:14:17;100378.50;;;16.68;42.50
46714;BME280;32445;51.376;10.874;2023-09-30T21:19:17;100380.41;;;16.63;42.44
46714;BME280;32445;51.376;10.874;2023-09-30T21:24:18;100374.50;;;16.58;42.27
46714;BME280;32445;51.376;10.874;2023-09-30T21:29:18;100365.09;;;16.52;42.42
46714;BME280;32445;51.376;10.874;2023-09-30T21:34:18;100382.69;;;16.49;42.44
46714;BME280;32445;51.376;10.874;2023-09-30T21:39:19;100375.91;;;16.43;42.40
46714;BME280;32445;51.376;10.874;2023-09-30T21:44:19;100377.84;;;16.38;42.42
46714;BME280;32445;51.376;10.874;2023-09-30T21:49:19;100366.69;;;16.33;42.64
46714;BME280;32445;51.376;10.874;2023-09-30T21:54:20;100376.44;;;16.29;42.56
46714;BME280;32445;51.376;10.874;2023-09-30T21:59:21;100368.66;;;16.26;42.48
46714;BME280;32445;51.376;10.874;2023-09-30T22:04:21;100378.41;;;16.22;42.60
46714;BME280;32445;51.376;10.874;2023-09-30T22:09:21;100381.97;;;16.20;42.58
46714;BME280;32445;51.376;10.874;2023-09-30T22:14:22;100382.03;;;16.18;42.62
46714;BME280;32445;51.376;10.874;2023-09-30T22:19:23;100383.00;;;16.16;42.74
46714;BME280;32445;51.376;10.874;2023-09-30T22:24:23;100377.81;;;16.14;42.51
46714;BME280;32445;51.376;10.874;2023-09-30T22:29:23;100371.78;;;16.12;42.90
46714;BME280;32445;51.376;10.874;2023-09-30T22:34:24;100353.56;;;16.09;42.80
46714;BME280;32445;51.376;10.874;2023-09-30T22:39:24;100368.47;;;16.07;43.01
46714;BME280;32445;51.376;10.874;2023-09-30T22:44:24;100377.22;;;16.06;42.98
46714;BME280;32445;51.376;10.874;2023-09-30T22:49:25;100372.03;;;16.04;43.13
46714;BME280;32445;51.376;10.874;2023-09-30T22:54:25;100362.56;;;16.02;42.96
46714;BME280;32445;51.376;10.874;2023-09-30T22:59:28;100354.72;;;16.00;43.14
46714;BME280;32445;51.376;10.874;2023-09-30T23:04:28;100351.31;;;15.98;43.17
46714;BME280;32445;51.376;10.874;2023-09-30T23:09:31;100351.38;;;15.97;43.25
46714;BME280;32445;51.376;10.874;2023-09-30T23:14:32;100348.75;;;15.97;43.25
46714;BME280;32445;51.376;10.874;2023-09-30T23:19:33;100347.94;;;15.95;43.21
46714;BME280;32445;51.376;10.874;2023-09-30T23:24:33;100354.09;;;15.94;43.52
46714;BME280;32445;51.376;10.874;2023-09-30T23:29:34;100354.28;;;15.89;43.38
46714;BME280;32445;51.376;10.874;2023-09-30T23:34:39;100341.38;;;15.83;43.51
46714;BME280;32445;51.376;10.874;2023-09-30T23:39:42;100321.50;;;15.75;43.62
46714;BME280;32445;51.376;10.874;2023-09-30T23:44:43;100337.31;;;15.72;43.63
46714;BME280;32445;51.376;10.874;2023-09-30T23:49:43;100353.09;;;15.71;43.75
46714;BME280;32445;51.376;10.874;2023-09-30T23:54:44;100347.97;;;15.68;43.86
46714;BME280;32445;51.376;10.874;2023-09-30T23:59:45;100355.03;;;15.64;43.83
